Time;durP1;ratioP1;P1;durP2;ratioP2;P2;SDS_P1;SDS_P2;PMS_P1;PMS_P2;Temp;Humidity;BMP_temperature;BMP_pressure;BME280_temperature;BME280_humidity;BME280_pressure;Samples;Min_cycle;Max_cycle;Signal;HPM_P1;HPM_P2
2021/07/04 00:00:47;;;;;;;;;;;;;;;17.58;69.13;97900.97;1743185;81;20312;-88
2021/07/04 00:03:15;;;;;;;;;;;;;;;17.60;69.20;97905.64;1743243;81;20230;-88
2021/07/04 00:05:42;;;;;;;;;;;;;;;17.56;69.26;97902.44;1753059;80;20242;-88
2021/07/04 00:08:09;;;;;;;;;;;;;;;17.52;69.31;97901.12;1751888;81;26892;-88
2021/07/04 00:10:36;;;;;;;;;;;;;;;17.49;69.36;97911.22;1749295;81;24512;-87
2021/07/04 00:13:04;;;;;;;;;;;;;;;17.42;69.42;97908.88;1748711;81;20215;-86
2021/07/04 00:15:34;;;;;;;;;;;;;;;17.32;69.49;97914.33;1756060;81;24920;-86
2021/07/04 00:17:58;;;;;;;;;;;;;;;17.22;69.59;97914.97;1752232;81;21838;-85
2021/07/04 00:20:24;;;;;;;;;;;;;;;17.13;69.67;97910.63;1754644;81;20979;-85
2021/07/04 00:22:56;;;;;;;;;;;;;;;17.05;69.78;97911.45;1742890;82;24480;-86
2021/07/04 00:25:18;;;;;;;;;;;;;;;16.98;69.90;97909.09;1749688;81;20235;-87
2021/07/04 00:27:46;;;;;;;;;;;;;;;16.97;70.00;97910.57;1755304;80;24835;-87
2021/07/04 00:30:13;;;;;;;;;;;;;;;16.95;70.12;97909.44;1724450;81;21763;-87
2021/07/04 00:32:39;;;;;;;;;;;;;;;16.93;70.23;97901.31;1755330;81;26058;-86
2021/07/04 00:35:10;;;;;;;;;;;;;;;16.90;70.35;97901.16;1754217;81;24420;-85
2021/07/04 00:37:36;;;;;;;;;;;;;;;16.85;70.44;97904.77;1750207;81;20270;-89
2021/07/04 00:40:15;;;;;;;;;;;;;;;16.82;70.56;97900.28;1749382;81;24812;-87
2021/07/04 00:42:41;;;;;;;;;;;;;;;16.78;70.65;97896.30;1753738;80;22793;-88
2021/07/04 00:45:10;;;;;;;;;;;;;;;16.77;70.77;97898.12;1746687;81;26237;-88
2021/07/04 00:47:36;;;;;;;;;;;;;;;16.78;70.86;97890.53;1754318;81;24452;-88
2021/07/04 00:50:03;;;;;;;;;;;;;;;16.78;70.96;97887.89;1752808;81;20512;-88
2021/07/04 00:52:29;;;;;;;;;;;;;;;16.79;71.05;97892.68;1749376;81;24195;-89
2021/07/04 00:54:55;;;;;;;;;;;;;;;16.78;71.14;97894.49;1752337;81;22135;-88
2021/07/04 00:57:22;;;;;;;;;;;;;;;16.71;71.21;97892.97;1751453;81;26010;-86
2021/07/04 00:59:48;;;;;;;;;;;;;;;16.66;71.28;97889.98;1752965;81;24500;-86
2021/07/04 01:02:14;;;;;;;;;;;;;;;16.64;71.37;97886.66;1753667;81;20230;-89
2021/07/04 01:04:41;;;;;;;;;;;;;;;16.63;71.44;97885.52;1747065;81;25683;-88
2021/07/04 01:07:09;;;;;;;;;;;;;;;16.56;71.50;97882.64;1750559;81;22021;-88
2021/07/04 01:09:38;;;;;;;;;;;;;;;16.52;71.60;97882.63;1715949;81;26640;-88
2021/07/04 01:12:04;;;;;;;;;;;;;;;16.48;71.67;97880.44;1751135;81;24443;-88
2021/07/04 01:14:30;;;;;;;;;;;;;;;16.45;71.75;97879.44;1755264;81;20211;-88
2021/07/04 01:17:00;;;;;;;;;;;;;;;16.43;71.81;97879.59;1750099;81;24757;-88
2021/07/04 01:19:26;;;;;;;;;;;;;;;16.43;71.90;97884.04;1753909;80;21969;-88
2021/07/04 01:21:54;;;;;;;;;;;;;;;16.43;72.00;97880.91;1749803;81;26178;-87
2021/07/04 01:24:20;;;;;;;;;;;;;;;16.44;72.06;97882.58;1751175;81;25211;-88
2021/07/04 01:26:46;;;;;;;;;;;;;;;16.45;72.14;97882.08;1752821;81;20209;-87
2021/07/04 01:29:12;;;;;;;;;;;;;;;16.45;72.22;97880.77;1753304;81;25231;-88
2021/07/04 01:31:39;;;;;;;;;;;;;;;16.48;72.28;97872.02;1746667;81;20300;-87
2021/07/04 01:34:05;;;;;;;;;;;;;;;16.53;72.34;97873.69;1750676;81;25985;-88
2021/07/04 01:36:32;;;;;;;;;;;;;;;16.56;72.42;97875.20;1756448;81;25222;-88
2021/07/04 01:38:58;;;;;;;;;;;;;;;16.49;72.47;97878.13;1755130;81;20247;-85
2021/07/04 01:41:33;;;;;;;;;;;;;;;16.36;72.51;97868.02;1753395;80;24853;-87
2021/07/04 01:44:00;;;;;;;;;;;;;;;16.29;72.53;97881.02;1733273;80;21998;-86
2021/07/04 01:46:29;;;;;;;;;;;;;;;16.27;72.59;97881.66;1747650;81;25946;-86
2021/07/04 01:48:55;;;;;;;;;;;;;;;16.36;72.67;97879.08;1745410;81;24461;-86
2021/07/04 01:51:24;;;;;;;;;;;;;;;16.41;72.69;97884.22;1738175;80;20240;-86
2021/07/04 01:53:50;;;;;;;;;;;;;;;16.50;72.73;97882.44;1769960;80;24906;-86
2021/07/04 01:56:22;;;;;;;;;;;;;;;16.53;72.74;97878.98;1742838;81;21964;-88
2021/07/04 01:58:50;;;;;;;;;;;;;;;16.51;72.76;97878.81;1750073;81;26783;-88
2021/07/04 02:01:16;;;;;;;;;;;;;;;16.47;72.79;97877.48;1718256;81;24282;-89
2021/07/04 02:03:42;;;;;;;;;;;;;;;16.44;72.79;97875.14;1746895;81;20352;-87
2021/07/04 02:06:08;;;;;;;;;;;;;;;16.40;72.81;97875.95;1738679;82;20219;-88
2021/07/04 02:08:34;;;;;;;;;;;;;;;16.36;72.81;97877.27;1741947;82;20230;-88
2021/07/04 02:11:00;;;;;;;;;;;;;;;16.30;72.85;97880.04;1743308;82;21185;-88
2021/07/04 02:13:27;;;;;;;;;;;;;;;16.22;72.88;97878.66;1739592;82;20269;-87
2021/07/04 02:15:54;;;;;;;;;;;;;;;16.16;72.93;97877.95;1741840;82;20327;-87
2021/07/04 02:18:20;;;;;;;;;;;;;;;16.13;72.98;97880.92;1735984;82;24988;-87
2021/07/04 02:20:47;;;;;;;;;;;;;;;16.10;73.04;97885.66;1743846;82;21949;-86
2021/07/04 02:23:15;;;;;;;;;;;;;;;16.09;73.09;97891.42;1735055;82;25973;-86
2021/07/04 02:25:41;;;;;;;;;;;;;;;16.11;73.17;97888.64;1742540;82;24510;-86
2021/07/04 02:28:09;;;;;;;;;;;;;;;16.12;73.20;97891.14;1716412;82;20485;-86
2021/07/04 02:30:35;;;;;;;;;;;;;;;16.10;73.26;97897.05;1739037;80;24852;-86
2021/07/04 02:33:03;;;;;;;;;;;;;;;15.97;73.30;97887.41;1741117;81;21982;-86
2021/07/04 02:35:31;;;;;;;;;;;;;;;15.86;73.34;97894.25;1740628;82;26698;-85
2021/07/04 02:37:59;;;;;;;;;;;;;;;15.86;73.42;97888.48;1736318;82;25322;-86
2021/07/04 02:40:25;;;;;;;;;;;;;;;15.93;73.47;97893.95;1741415;82;20225;-86
2021/07/04 02:42:51;;;;;;;;;;;;;;;15.94;73.52;97889.02;1737703;82;24798;-86
2021/07/04 02:45:20;;;;;;;;;;;;;;;15.93;73.56;97889.99;1740055;82;20257;-86
2021/07/04 02:47:46;;;;;;;;;;;;;;;15.90;73.60;97890.31;1736333;81;25544;-89
2021/07/04 02:50:12;;;;;;;;;;;;;;;15.88;73.63;97890.95;1729895;82;20285;-90
2021/07/04 02:52:38;;;;;;;;;;;;;;;15.87;73.68;97894.08;1740722;82;20240;-88
2021/07/04 02:55:05;;;;;;;;;;;;;;;15.86;73.72;97900.36;1741420;82;24841;-87
2021/07/04 02:57:31;;;;;;;;;;;;;;;15.86;73.78;97896.41;1739028;82;21979;-84
2021/07/04 02:59:57;;;;;;;;;;;;;;;15.87;73.83;97903.31;1742968;81;26038;-87
2021/07/04 03:02:24;;;;;;;;;;;;;;;15.88;73.84;97894.42;1737279;82;20321;-88
2021/07/04 03:04:52;;;;;;;;;;;;;;;15.87;73.92;97891.44;1737301;82;20212;-85
2021/07/04 03:07:20;;;;;;;;;;;;;;;15.75;73.96;97895.32;1712858;82;24358;-85
2021/07/04 03:09:46;;;;;;;;;;;;;;;15.67;73.98;97899.69;1743431;82;22054;-85
2021/07/04 03:12:12;;;;;;;;;;;;;;;15.62;74.06;97900.63;1738365;82;20969;-88
2021/07/04 03:14:38;;;;;;;;;;;;;;;15.54;74.12;97899.26;1733471;82;24375;-88
2021/07/04 03:17:04;;;;;;;;;;;;;;;15.46;74.18;97916.62;1717965;83;20293;-87
2021/07/04 03:19:30;;;;;;;;;;;;;;;15.41;74.24;97916.24;1754529;81;24733;-87
2021/07/04 03:22:03;;;;;;;;;;;;;;;15.42;74.30;97919.71;1758251;81;21948;-88
2021/07/04 03:24:29;;;;;;;;;;;;;;;15.48;74.41;97921.27;1730828;82;25992;-86
2021/07/04 03:26:57;;;;;;;;;;;;;;;15.60;74.48;97918.44;1722616;83;20290;-86
2021/07/04 03:29:24;;;;;;;;;;;;;;;15.78;74.58;97924.52;1703969;81;20582;-86
2021/07/04 03:31:49;;;;;;;;;;;;;;;15.90;74.64;97919.34;1727750;82;20219;-86
2021/07/04 03:34:16;;;;;;;;;;;;;;;16.01;74.69;97926.19;1695881;83;22066;-87
2021/07/04 03:36:45;;;;;;;;;;;;;;;16.07;74.75;97922.45;1718911;83;26818;-84
2021/07/04 03:39:11;;;;;;;;;;;;;;;16.13;74.80;97930.25;1732719;82;20277;-84
2021/07/04 03:41:37;;;;;;;;;;;;;;;16.17;74.85;97934.23;1734043;82;20184;-84
2021/07/04 03:44:03;;;;;;;;;;;;;;;16.23;74.89;97935.77;1735455;80;20288;-88
2021/07/04 03:46:29;;;;;;;;;;;;;;;16.29;74.93;97931.19;1728982;80;22029;-87
2021/07/04 03:49:01;;;;;;;;;;;;;;;16.36;74.96;97934.05;1723951;83;26059;-87
2021/07/04 03:51:27;;;;;;;;;;;;;;;16.44;74.99;97935.89;1723694;82;24266;-87
2021/07/04 03:53:53;;;;;;;;;;;;;;;16.53;75.04;97942.90;1718622;83;20582;-87
2021/07/04 03:56:20;;;;;;;;;;;;;;;16.62;75.04;97942.81;1759298;80;25670;-88
2021/07/04 03:58:47;;;;;;;;;;;;;;;16.74;75.05;97946.02;1754361;81;21978;-87
2021/07/04 04:01:18;;;;;;;;;;;;;;;16.84;75.07;97940.11;1741137;82;26030;-85
2021/07/04 04:03:44;;;;;;;;;;;;;;;16.96;75.08;97944.63;1736365;82;23922;-88
2021/07/04 04:06:11;;;;;;;;;;;;;;;17.03;75.07;97945.13;1720158;82;35035;-88
2021/07/04 04:08:37;;;;;;;;;;;;;;;17.09;75.03;97945.82;1745363;81;24798;-88
2021/07/04 04:11:04;;;;;;;;;;;;;;;17.16;75.00;97947.34;1743414;81;20852;-88
2021/07/04 04:13:30;;;;;;;;;;;;;;;17.22;74.98;97943.23;1744082;81;25953;-87
2021/07/04 04:15:56;;;;;;;;;;;;;;;17.30;74.92;97939.27;1690595;81;24899;-86
2021/07/04 04:18:22;;;;;;;;;;;;;;;17.39;74.88;97940.97;1751632;80;20136;-87
2021/07/04 04:20:48;;;;;;;;;;;;;;;17.52;74.87;97938.66;1751261;81;20242;-86
2021/07/04 04:23:14;;;;;;;;;;;;;;;17.62;74.83;97926.66;1748176;81;20317;-86
2021/07/04 04:25:40;;;;;;;;;;;;;;;17.70;74.80;97919.54;1746268;81;26569;-86
2021/07/04 04:28:08;;;;;;;;;;;;;;;17.84;74.77;97914.91;1747886;81;24470;-86
2021/07/04 04:30:40;;;;;;;;;;;;;;;17.93;74.72;97906.48;1750115;81;20253;-86
2021/07/04 04:33:06;;;;;;;;;;;;;;;17.99;74.65;97908.47;1747305;81;24822;-87
2021/07/04 04:35:32;;;;;;;;;;;;;;;18.01;74.61;97902.98;1748710;81;20281;-87
2021/07/04 04:37:58;;;;;;;;;;;;;;;18.11;74.52;97906.31;1760068;79;25811;-86
2021/07/04 04:40:26;;;;;;;;;;;;;;;18.25;74.46;97909.59;1749567;81;24459;-86
2021/07/04 04:42:54;;;;;;;;;;;;;;;18.32;74.37;97906.61;1749591;81;20378;-87
2021/07/04 04:45:23;;;;;;;;;;;;;;;18.45;74.29;97916.66;1746588;81;25485;-87
2021/07/04 04:47:49;;;;;;;;;;;;;;;18.54;74.21;97910.37;1743193;81;22058;-87
2021/07/04 04:50:15;;;;;;;;;;;;;;;18.66;74.13;97914.31;1747190;81;25936;-86
2021/07/04 04:52:41;;;;;;;;;;;;;;;18.80;74.04;97917.11;1743432;81;25233;-87
2021/07/04 04:55:10;;;;;;;;;;;;;;;18.90;73.95;97915.56;1743229;81;20311;-87
2021/07/04 04:57:36;;;;;;;;;;;;;;;19.00;73.85;97916.67;1747346;81;24733;-87
2021/07/04 05:00:04;;;;;;;;;;;;;;;19.02;73.74;97918.17;1750440;81;21924;-87
2021/07/04 05:02:30;;;;;;;;;;;;;;;19.04;73.60;97919.30;1735999;81;26756;-87
2021/07/04 05:04:56;;;;;;;;;;;;;;;19.08;73.51;97919.31;1744101;80;24484;-86
2021/07/04 05:07:22;;;;;;;;;;;;;;;19.09;73.38;97921.77;1755228;80;20244;-86
2021/07/04 05:09:48;;;;;;;;;;;;;;;19.12;73.29;97924.09;1755078;81;25596;-85
2021/07/04 05:12:14;;;;;;;;;;;;;;;19.13;73.17;97924.42;1729572;82;20351;-86
2021/07/04 05:14:40;;;;;;;;;;;;;;;19.14;73.07;97924.76;1733577;80;25963;-86
2021/07/04 05:17:06;;;;;;;;;;;;;;;19.11;72.98;97914.97;1742621;80;24479;-85
2021/07/04 05:19:32;;;;;;;;;;;;;;;19.07;72.85;97918.48;1754591;81;20223;-85
2021/07/04 05:21:58;;;;;;;;;;;;;;;19.04;72.74;97917.98;1724893;82;24770;-85
2021/07/04 05:24:24;;;;;;;;;;;;;;;19.05;72.67;97922.29;1733855;82;20388;-85
2021/07/04 05:26:50;;;;;;;;;;;;;;;19.10;72.58;97919.94;1741926;82;21045;-86
2021/07/04 05:29:16;;;;;;;;;;;;;;;19.13;72.51;97929.73;1730565;82;20321;-88
2021/07/04 05:31:42;;;;;;;;;;;;;;;19.16;72.48;97921.41;1729113;82;20316;-87
2021/07/04 05:34:08;;;;;;;;;;;;;;;19.21;72.42;97916.91;1739709;80;20259;-88
2021/07/04 05:36:34;;;;;;;;;;;;;;;19.26;72.37;97919.86;1754642;81;21973;-87
2021/07/04 05:39:00;;;;;;;;;;;;;;;19.28;72.30;97915.22;1728596;82;25947;-84
2021/07/04 05:41:26;;;;;;;;;;;;;;;19.30;72.24;97911.90;1714615;81;24401;-85
2021/07/04 05:43:52;;;;;;;;;;;;;;;19.33;72.17;97912.86;1748470;81;20215;-85
2021/07/04 05:46:19;;;;;;;;;;;;;;;19.38;72.07;97918.47;1749559;81;24738;-85
2021/07/04 05:48:45;;;;;;;;;;;;;;;19.37;71.97;97914.16;1744893;81;22922;-88
2021/07/04 05:51:11;;;;;;;;;;;;;;;19.43;71.92;97912.13;1745698;81;25540;-87
2021/07/04 05:53:37;;;;;;;;;;;;;;;19.48;71.88;97920.42;1745237;81;20349;-87
2021/07/04 05:56:04;;;;;;;;;;;;;;;19.51;71.84;97915.28;1737630;81;20632;-84
2021/07/04 05:58:29;;;;;;;;;;;;;;;19.60;71.83;97920.85;1750748;81;24849;-86
2021/07/04 06:00:55;;;;;;;;;;;;;;;19.72;71.80;97915.96;1750086;81;20298;-91
2021/07/04 06:03:21;;;;;;;;;;;;;;;19.78;71.76;97914.76;1747069;81;20970;-86
2021/07/04 06:05:47;;;;;;;;;;;;;;;19.91;71.70;97918.16;1747975;81;24432;-85
2021/07/04 06:08:13;;;;;;;;;;;;;;;20.00;71.67;97917.07;1737334;80;20309;-85
2021/07/04 06:10:40;;;;;;;;;;;;;;;20.09;71.60;97913.33;1738155;82;24771;-88
2021/07/04 06:13:06;;;;;;;;;;;;;;;20.17;71.52;97913.27;1737668;82;21900;-85
2021/07/04 06:15:36;;;;;;;;;;;;;;;20.27;71.40;97909.84;1742119;82;25964;-87
2021/07/04 06:18:02;;;;;;;;;;;;;;;20.37;71.31;97913.09;1741335;82;24663;-88
2021/07/04 06:20:31;;;;;;;;;;;;;;;20.46;71.21;97917.31;1741095;82;20208;-88
2021/07/04 06:22:57;;;;;;;;;;;;;;;20.50;71.13;97911.66;1740915;82;24918;-87
2021/07/04 06:25:23;;;;;;;;;;;;;;;20.58;71.04;97919.52;1736886;81;22017;-85
2021/07/04 06:27:50;;;;;;;;;;;;;;;20.68;71.04;97922.73;1741732;82;26034;-84
2021/07/04 06:30:18;;;;;;;;;;;;;;;20.79;71.01;97922.28;1740850;82;24526;-85
2021/07/04 06:32:45;;;;;;;;;;;;;;;20.82;70.94;97925.41;1738032;82;20524;-85
2021/07/04 06:35:12;;;;;;;;;;;;;;;20.80;70.81;97924.77;1738333;82;24815;-85
2021/07/04 06:37:39;;;;;;;;;;;;;;;20.85;70.73;97921.55;1735348;82;22032;-84
2021/07/04 06:40:07;;;;;;;;;;;;;;;20.89;70.61;97924.18;1739607;82;26032;-85
2021/07/04 06:42:33;;;;;;;;;;;;;;;20.94;70.49;97927.11;1741581;82;24463;-86
2021/07/04 06:44:59;;;;;;;;;;;;;;;20.94;70.28;97926.28;1736232;81;20367;-87
2021/07/04 06:47:25;;;;;;;;;;;;;;;20.96;70.10;97925.07;1741966;82;20269;-86
2021/07/04 06:49:51;;;;;;;;;;;;;;;21.02;69.96;97926.16;1738533;82;20262;-87
2021/07/04 06:52:17;;;;;;;;;;;;;;;21.12;69.86;97936.02;1736751;82;26057;-84
2021/07/04 06:54:43;;;;;;;;;;;;;;;21.19;69.75;97931.13;1738298;82;20246;-86
2021/07/04 06:57:27;;;;;;;;;;;;;;;21.25;69.55;97930.89;1736759;82;20284;-86
2021/07/04 06:59:57;;;;;;;;;;;;;;;21.31;69.35;97930.66;1739799;82;24399;-85
2021/07/04 07:02:24;;;;;;;;;;;;;;;21.34;69.20;97930.27;1737041;82;21388;-85
2021/07/04 07:04:50;;;;;;;;;;;;;;;21.38;69.03;97935.56;1745459;82;26040;-85
2021/07/04 07:07:19;;;;;;;;;;;;;;;21.37;68.84;97936.56;1739264;82;24681;-85
2021/07/04 07:09:46;;;;;;;;;;;;;;;21.40;68.62;97936.18;1739741;82;20517;-85
2021/07/04 07:12:12;;;;;;;;;;;;;;;21.46;68.49;97931.44;1741482;81;24752;-87
2021/07/04 07:14:38;;;;;;;;;;;;;;;21.53;68.22;97932.34;1744007;82;22045;-86
2021/07/04 07:17:10;;;;;;;;;;;;;;;21.59;67.99;97932.92;1735794;82;26061;-86
2021/07/04 07:19:36;;;;;;;;;;;;;;;21.60;67.84;97932.72;1735945;82;24513;-87
2021/07/04 07:22:02;;;;;;;;;;;;;;;21.65;67.65;97938.83;1739775;82;20216;-85
2021/07/04 07:24:28;;;;;;;;;;;;;;;21.68;67.51;97939.77;1739276;81;24724;-86
2021/07/04 07:26:54;;;;;;;;;;;;;;;21.76;67.39;97939.66;1740329;81;20373;-87
2021/07/04 07:29:20;;;;;;;;;;;;;;;21.85;67.21;97936.36;1741956;82;21039;-86
2021/07/04 07:31:46;;;;;;;;;;;;;;;21.97;67.06;97939.70;1743974;82;20345;-86
2021/07/04 07:34:12;;;;;;;;;;;;;;;22.06;66.91;97942.53;1742694;82;20266;-87
2021/07/04 07:36:38;;;;;;;;;;;;;;;22.23;66.79;97933.76;1737598;82;24831;-86
2021/07/04 07:39:05;;;;;;;;;;;;;;;22.39;66.66;97932.14;1739668;82;21996;-86
2021/07/04 07:41:31;;;;;;;;;;;;;;;22.52;66.51;97929.58;1736066;82;26065;-86
2021/07/04 07:43:57;;;;;;;;;;;;;;;22.58;66.33;97924.48;1740491;82;24380;-86
2021/07/04 07:46:23;;;;;;;;;;;;;;;22.60;66.13;97924.58;1739098;82;20241;-86
2021/07/04 07:48:52;;;;;;;;;;;;;;;22.60;65.85;97923.25;1738133;81;24892;-87
2021/07/04 07:51:18;;;;;;;;;;;;;;;22.60;65.54;97920.58;1738773;82;22077;-86
2021/07/04 07:53:44;;;;;;;;;;;;;;;22.57;65.18;97920.16;1741091;82;25928;-87
2021/07/04 07:56:10;;;;;;;;;;;;;;;22.55;64.95;97916.34;1742077;80;25322;-89
2021/07/04 07:58:37;;;;;;;;;;;;;;;22.63;64.75;97917.55;1734849;82;20222;-88
2021/07/04 08:01:03;;;;;;;;;;;;;;;22.71;64.52;97911.20;1736845;82;24810;-88
2021/07/04 08:03:35;;;;;;;;;;;;;;;22.79;64.26;97917.26;1744009;82;21957;-85
2021/07/04 08:06:01;;;;;;;;;;;;;;;22.87;64.05;97913.08;1739736;81;26129;-89
2021/07/04 08:08:27;;;;;;;;;;;;;;;22.85;63.82;97908.47;1747813;81;20436;-86
2021/07/04 08:10:53;;;;;;;;;;;;;;;22.84;63.55;97899.31;1746068;80;20346;-88
2021/07/04 08:13:19;;;;;;;;;;;;;;;22.78;63.19;97903.59;1749495;80;24741;-86
2021/07/04 08:15:45;;;;;;;;;;;;;;;22.77;62.95;97901.12;1747454;81;21764;-85
2021/07/04 08:18:11;;;;;;;;;;;;;;;22.78;62.78;97898.27;1747808;81;26867;-86
2021/07/04 08:20:37;;;;;;;;;;;;;;;22.87;62.71;97892.23;1751256;81;24530;-86
2021/07/04 08:23:03;;;;;;;;;;;;;;;22.91;62.58;97895.64;1742351;81;21142;-85
2021/07/04 08:25:29;;;;;;;;;;;;;;;22.97;62.44;97888.69;1744521;81;24814;-86
2021/07/04 08:27:55;;;;;;;;;;;;;;;23.04;62.30;97894.89;1745387;81;21937;-86
2021/07/04 08:30:22;;;;;;;;;;;;;;;23.11;62.12;97890.41;1751019;81;20968;-86
2021/07/04 08:32:48;;;;;;;;;;;;;;;23.17;61.91;97890.13;1745708;81;24504;-87
2021/07/04 08:35:15;;;;;;;;;;;;;;;23.33;61.82;97891.92;1750504;81;20391;-86
2021/07/04 08:37:41;;;;;;;;;;;;;;;23.53;61.72;97887.98;1743010;81;24784;-86
2021/07/04 08:40:09;;;;;;;;;;;;;;;23.75;61.63;97881.96;1746770;81;21973;-88
2021/07/04 08:42:35;;;;;;;;;;;;;;;23.92;61.54;97887.73;1748130;81;25955;-88
2021/07/04 08:45:01;;;;;;;;;;;;;;;23.99;61.32;97885.89;1752110;81;24489;-90
2021/07/04 08:47:33;;;;;;;;;;;;;;;24.05;61.14;97883.74;1750454;81;20420;-89
2021/07/04 08:49:59;;;;;;;;;;;;;;;24.07;60.92;97885.67;1748427;81;24718;-88
2021/07/04 08:52:25;;;;;;;;;;;;;;;24.08;60.66;97883.31;1746477;81;22024;-89
2021/07/04 08:54:52;;;;;;;;;;;;;;;24.04;60.36;97880.24;1750581;81;26007;-90
2021/07/04 08:57:18;;;;;;;;;;;;;;;23.95;59.99;97881.45;1745123;81;24487;-89
2021/07/04 08:59:45;;;;;;;;;;;;;;;23.86;59.65;97880.02;1750009;81;20261;-89
2021/07/04 09:02:13;;;;;;;;;;;;;;;23.80;59.33;97875.48;1747533;81;24738;-89
2021/07/04 09:04:41;;;;;;;;;;;;;;;23.76;59.09;97869.74;1747601;81;21996;-85
2021/07/04 09:07:08;;;;;;;;;;;;;;;23.74;58.74;97866.95;1744670;81;26846;-87
2021/07/04 09:09:35;;;;;;;;;;;;;;;23.82;58.59;97865.94;1745378;82;24518;-89
2021/07/04 09:12:10;;;;;;;;;;;;;;;23.92;58.45;97870.36;1746610;81;20270;-86
2021/07/04 09:14:47;;;;;;;;;;;;;;;23.98;58.28;97876.22;1746958;81;24694;-86
2021/07/04 09:17:15;;;;;;;;;;;;;;;23.93;57.96;97866.66;1746209;81;22021;-88
2021/07/04 09:19:43;;;;;;;;;;;;;;;23.98;57.86;97867.70;1714612;81;25761;-89
2021/07/04 09:22:10;;;;;;;;;;;;;;;24.02;57.69;97852.88;1743671;81;24477;-86
2021/07/04 09:24:44;;;;;;;;;;;;;;;24.18;57.63;97857.84;1744305;81;20244;-86
2021/07/04 09:27:11;;;;;;;;;;;;;;;24.33;57.57;97852.80;1744909;82;24897;-89
2021/07/04 09:29:40;;;;;;;;;;;;;;;24.53;57.63;97850.89;1746242;82;23775;-89
2021/07/04 09:32:12;;;;;;;;;;;;;;;24.65;57.59;97849.22;1739880;82;26678;-86
2021/07/04 09:34:38;;;;;;;;;;;;;;;24.71;57.41;97843.00;1744219;82;24514;-86
2021/07/04 09:37:05;;;;;;;;;;;;;;;24.69;57.13;97848.27;1744889;82;20202;-86
2021/07/04 09:39:31;;;;;;;;;;;;;;;24.60;56.80;97846.36;1745878;81;24743;-86
2021/07/04 09:42:07;;;;;;;;;;;;;;;24.53;56.47;97847.70;1744839;81;20281;-86
2021/07/04 09:44:40;;;;;;;;;;;;;;;24.49;56.24;97840.31;1744143;81;26698;-86
2021/07/04 09:47:13;;;;;;;;;;;;;;;24.46;56.06;97838.04;1746356;81;24452;-87
2021/07/04 09:49:40;;;;;;;;;;;;;;;24.44;55.96;97837.41;1746858;81;20164;-86
2021/07/04 09:52:13;;;;;;;;;;;;;;;24.46;55.77;97832.69;1746183;81;24810;-87
2021/07/04 09:54:41;;;;;;;;;;;;;;;24.52;55.69;97834.02;1745086;81;22033;-87
2021/07/04 09:57:07;;;;;;;;;;;;;;;24.64;55.64;97831.52;1746980;81;26230;-88
2021/07/04 09:59:33;;;;;;;;;;;;;;;24.74;55.57;97833.23;1745778;81;20314;-89
2021/07/04 10:01:59;;;;;;;;;;;;;;;24.71;55.38;97839.53;1745362;80;20392;-88
2021/07/04 10:04:26;;;;;;;;;;;;;;;24.78;55.25;97834.44;1745685;81;24746;-89
2021/07/04 10:06:53;;;;;;;;;;;;;;;24.71;54.96;97830.16;1747541;81;22048;-86
2021/07/04 10:09:21;;;;;;;;;;;;;;;24.51;54.63;97823.00;1714026;81;26050;-87
2021/07/04 10:11:48;;;;;;;;;;;;;;;24.30;54.36;97821.92;1747490;81;24584;-88
2021/07/04 10:14:14;;;;;;;;;;;;;;;24.25;54.19;97823.58;1748913;81;20521;-86
2021/07/04 10:16:44;;;;;;;;;;;;;;;24.22;54.08;97814.66;1743684;81;24887;-87
2021/07/04 10:19:21;;;;;;;;;;;;;;;24.20;53.80;97805.49;1745093;81;22042;-87
2021/07/04 10:21:51;;;;;;;;;;;;;;;24.27;53.63;97810.84;1747531;81;26080;-87
2021/07/04 10:24:18;;;;;;;;;;;;;;;24.26;53.34;97807.84;1749340;81;24482;-87
2021/07/04 10:26:46;;;;;;;;;;;;;;;24.26;53.07;97799.83;1741605;81;20306;-85
2021/07/04 10:29:13;;;;;;;;;;;;;;;24.34;52.95;97798.25;1746572;81;24830;-85
2021/07/04 10:31:39;;;;;;;;;;;;;;;24.43;52.78;97795.67;1747862;81;21958;-85
2021/07/04 10:34:19;;;;;;;;;;;;;;;24.53;52.66;97789.36;1750265;81;25944;-88
2021/07/04 10:36:58;;;;;;;;;;;;;;;24.64;52.48;97786.02;1747615;81;24494;-87
2021/07/04 10:39:31;;;;;;;;;;;;;;;24.88;52.39;97781.81;1746861;81;20354;-88
2021/07/04 10:42:01;;;;;;;;;;;;;;;24.92;52.15;97774.50;1744616;81;24467;-88
2021/07/04 10:44:47;;;;;;;;;;;;;;;24.87;51.82;97768.94;1746157;81;22047;-88
2021/07/04 10:47:15;;;;;;;;;;;;;;;24.83;51.57;97769.05;1746510;81;26850;-89
2021/07/04 10:49:46;;;;;;;;;;;;;;;24.90;51.46;97765.86;1751743;81;24250;-88
2021/07/04 10:52:14;;;;;;;;;;;;;;;25.00;51.37;97764.87;1749480;81;20490;-89
2021/07/04 10:54:45;;;;;;;;;;;;;;;25.09;51.26;97764.11;1747318;81;25983;-88
2021/07/04 10:57:16;;;;;;;;;;;;;;;25.16;51.24;97764.88;1746477;81;22680;-88
2021/07/04 10:59:53;;;;;;;;;;;;;;;25.21;51.17;97762.36;1740708;81;25948;-88
2021/07/04 11:02:50;;;;;;;;;;;;;;;25.30;51.11;97759.75;1746776;81;24538;-88
2021/07/04 11:05:37;;;;;;;;;;;;;;;25.47;51.12;97757.88;1745508;81;20242;-88
2021/07/04 11:08:05;;;;;;;;;;;;;;;25.53;50.94;97748.42;1748379;81;24784;-88
2021/07/04 11:10:34;;;;;;;;;;;;;;;25.70;50.87;97750.06;1744807;82;22321;-88
2021/07/04 11:13:12;;;;;;;;;;;;;;;25.79;50.77;97748.77;1739783;81;26059;-88
2021/07/04 11:15:39;;;;;;;;;;;;;;;25.83;50.52;97747.27;1742810;80;24454;-87
2021/07/04 11:18:12;;;;;;;;;;;;;;;25.92;50.45;97740.58;1739700;82;20331;-88
2021/07/04 11:20:49;;;;;;;;;;;;;;;26.00;50.36;97741.64;1736330;81;24756;-86
2021/07/04 11:23:13;;;;;;;;;;;;;;;26.03;50.17;97749.23;1739275;81;22053;-89
2021/07/04 11:25:41;;;;;;;;;;;;;;;26.08;49.98;97749.38;1714590;82;26782;-88
2021/07/04 11:28:18;;;;;;;;;;;;;;;26.17;49.87;97737.86;1737542;82;24435;-88
2021/07/04 11:30:47;;;;;;;;;;;;;;;26.26;49.71;97743.77;1742446;82;20279;-89
2021/07/04 11:33:21;;;;;;;;;;;;;;;26.24;49.40;97735.94;1737280;82;24864;-88
2021/07/04 11:35:54;;;;;;;;;;;;;;;26.16;49.05;97734.36;1739363;82;22256;-89
2021/07/04 11:38:28;;;;;;;;;;;;;;;26.09;48.78;97732.25;1736273;82;26868;-88
2021/07/04 11:41:12;;;;;;;;;;;;;;;26.23;48.69;97731.12;1738398;81;25299;-89
2021/07/04 11:43:39;;;;;;;;;;;;;;;26.31;48.66;97729.98;1739231;82;20232;-89
2021/07/04 11:46:15;;;;;;;;;;;;;;;26.25;48.53;97724.17;1738881;82;24734;-89
2021/07/04 11:49:04;;;;;;;;;;;;;;;26.17;48.33;97725.79;1742352;81;21907;-88
2021/07/04 11:51:35;;;;;;;;;;;;;;;26.03;48.03;97726.44;1742752;82;26015;-89
2021/07/04 11:54:09;;;;;;;;;;;;;;;25.95;47.83;97725.41;1738995;80;25548;-88
2021/07/04 11:56:37;;;;;;;;;;;;;;;25.87;47.66;97722.99;1736380;82;20309;-87
2021/07/04 11:59:15;;;;;;;;;;;;;;;25.72;47.48;97721.19;1740501;82;24718;-87
2021/07/04 12:01:43;;;;;;;;;;;;;;;25.61;47.38;97725.93;1739969;82;21941;-88
2021/07/04 12:04:09;;;;;;;;;;;;;;;25.58;47.40;97725.05;1741506;82;25993;-88
2021/07/04 12:06:36;;;;;;;;;;;;;;;25.55;47.39;97718.21;1741691;82;24552;-88
2021/07/04 12:09:08;;;;;;;;;;;;;;;25.68;47.53;97721.34;1750980;81;20175;-87
2021/07/04 12:11:47;;;;;;;;;;;;;;;25.68;47.23;97718.66;1748914;81;24758;-88
2021/07/04 12:14:27;;;;;;;;;;;;;;;25.72;47.15;97714.48;1743382;81;21935;-87
2021/07/04 12:16:56;;;;;;;;;;;;;;;25.75;46.98;97710.84;1751261;81;26113;-87
2021/07/04 12:19:26;;;;;;;;;;;;;;;25.97;46.91;97702.36;1740998;81;24463;-87
2021/07/04 12:21:56;;;;;;;;;;;;;;;26.07;46.77;97704.86;1760050;80;20217;-87
2021/07/04 12:24:25;;;;;;;;;;;;;;;26.20;46.79;97700.67;1731871;82;24797;-87
2021/07/04 12:26:51;;;;;;;;;;;;;;;26.52;46.96;97700.52;1735039;80;22139;-87
2021/07/04 12:29:16;;;;;;;;;;;;;;;26.72;47.00;97693.03;1736414;82;20771;-87
2021/07/04 12:31:45;;;;;;;;;;;;;;;26.93;47.05;97692.55;1742351;79;24385;-87
2021/07/04 12:34:12;;;;;;;;;;;;;;;27.05;46.85;97688.56;1764349;81;20178;-87
2021/07/04 12:36:38;;;;;;;;;;;;;;;27.19;46.76;97689.98;1752595;81;24790;-87
2021/07/04 12:39:09;;;;;;;;;;;;;;;27.30;46.62;97691.05;1756928;81;22117;-87
2021/07/04 12:41:38;;;;;;;;;;;;;;;27.31;46.36;97688.66;1755391;81;25540;-87
2021/07/04 12:44:19;;;;;;;;;;;;;;;27.29;46.04;97682.69;1750731;81;24451;-87
2021/07/04 12:46:45;;;;;;;;;;;;;;;27.15;45.78;97679.94;1754664;81;20300;-87
2021/07/04 12:49:12;;;;;;;;;;;;;;;27.09;45.58;97682.20;1745054;81;20233;-88
2021/07/04 12:51:39;;;;;;;;;;;;;;;26.99;45.34;97674.70;1752466;81;22230;-88